Nikitis — SVA7358 — position and weather

sailwx.info

Track history (hours):
 
Tides and Currents Weather Stations Pressure Air Temp Water Temp Dewpoint Dewpoint Depression Visibility Wind Speed Wind Dir Waves Ship Positions

Nikitis

Last reported at 2017-Nov-18 12:00 UTC. Time now 2017-Nov-18 12:21 UTC.
Position N 40°47' E 024°42'.

Length 39 m.

Type: Passenger vessel. MMSI: 239992800.

Date/timePositionNaut miles runAvg speedWind from/ knotsBaromVisibWave heightAir tempDewpointWater temp
2017-Nov-18 12:00N 40°47' E 024°42'0 0.0
2017-Nov-18 11:30N 40°47' E 024°42'0 0.0
2017-Nov-18 11:00N 40°47' E 024°42'4 7.9
2017-Nov-18 10:30N 40°51' E 024°41'1 2.5
2017-Nov-18 10:00N 40°51' E 024°42'1 2.2
2017-Nov-18 09:30N 40°51' E 024°41'4 7.9
2017-Nov-18 09:00N 40°47' E 024°42'0 0.0
2017-Nov-18 08:30N 40°47' E 024°42'0 0.0
2017-Nov-18 08:00N 40°47' E 024°42'0 0.0
2017-Nov-18 07:30N 40°47' E 024°42'0 0.0
2017-Nov-18 07:00N 40°47' E 024°42'0 0.0
2017-Nov-18 06:30N 40°47' E 024°42'0 0.0
2017-Nov-18 06:00N 40°47' E 024°42'0 0.0
2017-Nov-18 05:30N 40°47' E 024°42'0 0.0
2017-Nov-18 05:00N 40°47' E 024°42'0 0.0
2017-Nov-18 04:30N 40°47' E 024°42'0 0.0
2017-Nov-18 04:00N 40°47' E 024°42'0 0.0
2017-Nov-18 03:30N 40°47' E 024°42'0 0.0
2017-Nov-18 03:00N 40°47' E 024°42'0 0.0
2017-Nov-18 02:30N 40°47' E 024°42'0 0.0
2017-Nov-18 02:00N 40°47' E 024°42'0 0.0
2017-Nov-18 01:30N 40°47' E 024°42'0 0.0
2017-Nov-18 01:00N 40°47' E 024°42'0 0.0
2017-Nov-18 00:30N 40°47' E 024°42'0 0.0
2017-Nov-18 00:00N 40°47' E 024°42'0 0.0
2017-Nov-17 23:30N 40°47' E 024°42'0 0.0
2017-Nov-17 23:00N 40°47' E 024°42'0 0.0
2017-Nov-17 22:30N 40°47' E 024°42'0 0.0
2017-Nov-17 22:00N 40°47' E 024°42'0 0.0
2017-Nov-17 21:30N 40°47' E 024°42'0 0.0
2017-Nov-17 21:00N 40°47' E 024°42'0 0.0
2017-Nov-17 20:30N 40°47' E 024°42'0 0.0
2017-Nov-17 20:00N 40°47' E 024°42'0 0.0
2017-Nov-17 19:30N 40°47' E 024°42'0 0.0
2017-Nov-17 19:00N 40°47' E 024°42'0 0.0
2017-Nov-17 18:30N 40°47' E 024°42'0 0.0
2017-Nov-17 18:00N 40°47' E 024°42'0 0.0
2017-Nov-17 17:30N 40°47' E 024°42'0 0.0
2017-Nov-17 17:00N 40°47' E 024°42'0 0.0
2017-Nov-17 16:30N 40°47' E 024°42'0 0.0
2017-Nov-17 16:00N 40°47' E 024°42'0 0.0
2017-Nov-17 15:30N 40°47' E 024°42'0 0.0
2017-Nov-17 15:00N 40°47' E 024°42'0 0.0
2017-Nov-17 14:30N 40°47' E 024°42'0 0.0
2017-Nov-17 14:00N 40°47' E 024°42'4 8.2
2017-Nov-17 13:30N 40°51' E 024°41'1 2.3
2017-Nov-17 13:00N 40°51' E 024°42'0 0.1
2017-Nov-17 12:30N 40°51' E 024°42'0 0.1
2017-Nov-17 12:00N 40°51' E 024°42'2 4.7
2017-Nov-17 11:30N 40°49' E 024°42'2 4.6
2017-Nov-17 11:00N 40°47' E 024°42'4 8.1
2017-Nov-17 10:30N 40°51' E 024°41'1 1.1
2017-Nov-17 10:00N 40°51' E 024°41'5 9.4
2017-Nov-17 09:30N 40°47' E 024°42'4 7.5
2017-Nov-17 09:00N 40°51' E 024°41'1 2.5
2017-Nov-17 08:30N 40°51' E 024°42'1 2.8
2017-Nov-17 08:00N 40°50' E 024°41'3 6.8
2017-Nov-17 07:30N 40°47' E 024°42'0 0.0
2017-Nov-17 07:00N 40°47' E 024°42'0 0.0
2017-Nov-17 06:30N 40°47' E 024°42'0 0.0
2017-Nov-17 06:00N 40°47' E 024°42'0 0.0
2017-Nov-17 05:30N 40°47' E 024°42'0 0.0
2017-Nov-17 05:00N 40°47' E 024°42'0 0.0
2017-Nov-17 04:30N 40°47' E 024°42'0 0.0
2017-Nov-17 04:00N 40°47' E 024°42'0 0.0
2017-Nov-17 03:30N 40°47' E 024°42'0 0.0
2017-Nov-17 03:00N 40°47' E 024°42'0 0.0
2017-Nov-17 02:30N 40°47' E 024°42'0 0.0
2017-Nov-17 02:00N 40°47' E 024°42'0 0.0
2017-Nov-17 01:30N 40°47' E 024°42'0 0.0
2017-Nov-17 01:00N 40°47' E 024°42'0 0.0
2017-Nov-17 00:30N 40°47' E 024°42'0 0.0
2017-Nov-17 00:00N 40°47' E 024°42'0 0.0
2017-Nov-16 23:30N 40°47' E 024°42'0 0.0
2017-Nov-16 23:00N 40°47' E 024°42'0 0.0
2017-Nov-16 22:30N 40°47' E 024°42'0 0.0
2017-Nov-16 22:00N 40°47' E 024°42'0 0.0
2017-Nov-16 21:30N 40°47' E 024°42'0 0.0
2017-Nov-16 21:00N 40°47' E 024°42'0 0.0
2017-Nov-16 20:30N 40°47' E 024°42'0 0.0
2017-Nov-16 20:00N 40°47' E 024°42'0 0.0
2017-Nov-16 19:30N 40°47' E 024°42'0 0.0
2017-Nov-16 19:00N 40°47' E 024°42'0 0.0
2017-Nov-16 18:30N 40°47' E 024°42'0 0.0
2017-Nov-16 18:00N 40°47' E 024°42'0 0.0
2017-Nov-16 17:30N 40°47' E 024°42'0 0.0
2017-Nov-16 17:00N 40°47' E 024°42'0 0.0
2017-Nov-16 16:30N 40°47' E 024°42'0 0.0
2017-Nov-16 16:00N 40°47' E 024°42'0 0.0
2017-Nov-16 15:30N 40°47' E 024°42'0 0.0
2017-Nov-16 15:00N 40°47' E 024°42'0 0.0
2017-Nov-16 14:30N 40°47' E 024°42'0 0.0
2017-Nov-16 14:00N 40°47' E 024°42'0 0.0
2017-Nov-16 13:30N 40°47' E 024°42'0 0.0
2017-Nov-16 13:00N 40°47' E 024°42'0 0.0
2017-Nov-16 12:30N 40°47' E 024°42'0 0.0
2017-Nov-16 12:00N 40°47' E 024°42'0 0.0
2017-Nov-16 11:30N 40°47' E 024°42'0 0.0
2017-Nov-16 11:00N 40°47' E 024°42'0 0.0
2017-Nov-16 10:30N 40°47' E 024°42'0 0.0
2017-Nov-16 10:00N 40°47' E 024°42'0 0.0
2017-Nov-16 09:30N 40°47' E 024°42'0 0.0
2017-Nov-16 09:00N 40°47' E 024°42'0 0.0
2017-Nov-16 08:30N 40°47' E 024°42'0 0.0
2017-Nov-16 08:00N 40°47' E 024°42'0 0.0
2017-Nov-16 07:30N 40°47' E 024°42'0 0.0
2017-Nov-16 07:00N 40°47' E 024°42'0 0.0
2017-Nov-16 06:30N 40°47' E 024°42'0 0.0
2017-Nov-16 06:00N 40°47' E 024°42'0 0.0
2017-Nov-16 05:30N 40°47' E 024°42'0 0.0
2017-Nov-16 05:00N 40°47' E 024°42'0 0.0
2017-Nov-16 04:30N 40°47' E 024°42'0 0.0
2017-Nov-15 17:40N 40°47' E 024°42'0 0.0
2017-Nov-15 17:30N 40°47' E 024°42'0 0.0
2017-Nov-15 17:00N 40°47' E 024°42'0 0.0
2017-Nov-15 16:30N 40°47' E 024°42'0 0.0
2017-Nov-15 16:01N 40°47' E 024°42'0 0.0
2017-Nov-15 15:31N 40°47' E 024°42'0 0.0
2017-Nov-15 15:00N 40°47' E 024°42'0 0.0
2017-Nov-15 14:30N 40°47' E 024°42'0 0.0
2017-Nov-15 14:00N 40°47' E 024°42'0 0.0
2017-Nov-15 13:30N 40°47' E 024°42'0 0.0
2017-Nov-15 13:00N 40°47' E 024°42'0 0.0
2017-Nov-15 12:31N 40°47' E 024°42'0 0.0
2017-Nov-15 12:00N 40°47' E 024°42'0 0.0
2017-Nov-15 11:30N 40°47' E 024°42'0 0.0
2017-Nov-15 11:00N 40°47' E 024°42'0 0.0
2017-Nov-15 10:30N 40°47' E 024°42'0 0.0
2017-Nov-15 10:00N 40°47' E 024°42'0 0.0
2017-Nov-15 09:31N 40°47' E 024°42'0 0.0
2017-Nov-15 09:00N 40°47' E 024°42'0 0.0
2017-Nov-15 08:30N 40°47' E 024°42'0 0.2
2017-Nov-15 08:00N 40°47' E 024°42'2 4.7
2017-Nov-15 07:30N 40°49' E 024°41'3 5.0
2017-Nov-15 07:00N 40°51' E 024°42'0 0.0
2017-Nov-15 06:30N 40°51' E 024°42'3 5.6
2017-Nov-15 06:00N 40°49' E 024°43'2 3.8
2017-Nov-15 05:30N 40°47' E 024°42'0 0.5
2017-Nov-15 05:00N 40°47' E 024°43'0 0.0
2017-Nov-14 23:54N 40°47' E 024°43'0 0.0
2017-Nov-14 23:30N 40°47' E 024°43'0 0.0
2017-Nov-14 23:00N 40°47' E 024°43'0 0.0
2017-Nov-14 22:30N 40°47' E 024°43'0 0.0
2017-Nov-14 22:00N 40°47' E 024°43'0 0.0
2017-Nov-14 21:30N 40°47' E 024°43'0 0.0
2017-Nov-14 21:00N 40°47' E 024°43'0 0.0
2017-Nov-14 20:30N 40°47' E 024°43'0 0.0
2017-Nov-14 20:00N 40°47' E 024°43'0 0.0
2017-Nov-14 19:30N 40°47' E 024°43'0 0.0
2017-Nov-14 19:00N 40°47' E 024°43'0 0.0
2017-Nov-14 18:30N 40°47' E 024°43'0 0.0
2017-Nov-14 18:00N 40°47' E 024°43'0 0.0
2017-Nov-14 17:30N 40°47' E 024°43'0 0.0
2017-Nov-14 17:00N 40°47' E 024°43'0 0.0
2017-Nov-14 16:30N 40°47' E 024°43'0 0.0
2017-Nov-14 16:00N 40°47' E 024°43'0 0.0
2017-Nov-14 15:30N 40°47' E 024°43'0 0.0
2017-Nov-14 15:00N 40°47' E 024°43'0 0.0
2017-Nov-14 14:30N 40°47' E 024°43'0 0.0
2017-Nov-14 14:00N 40°47' E 024°43'0 0.0
2017-Nov-14 13:30N 40°47' E 024°43'0 0.0
2017-Nov-14 13:00N 40°47' E 024°43'0 0.6
2017-Nov-14 12:30N 40°47' E 024°42'4 8.2
2017-Nov-14 12:00N 40°51' E 024°41'1 2.4
2017-Nov-14 11:30N 40°51' E 024°42'0 0.0
2017-Nov-14 11:00N 40°51' E 024°42'1 2.1
2017-Nov-14 10:30N 40°51' E 024°41'4 7.3
2017-Nov-14 10:00N 40°47' E 024°42'1 1.2
2017-Nov-14 09:30N 40°47' E 024°42'0 0.0
2017-Nov-14 09:00N 40°47' E 024°42'4 8.0
2017-Nov-14 08:30N 40°51' E 024°41'1 2.3
2017-Nov-14 08:00N 40°51' E 024°42'1 2.2
2017-Nov-14 07:30N 40°51' E 024°41'4 8.1
2017-Nov-14 07:00N 40°47' E 024°42'0 0.0
2017-Nov-14 06:30N 40°47' E 024°42'2 4.6
2017-Nov-14 06:00N 40°49' E 024°41'3 5.3
2017-Nov-14 05:30N 40°52' E 024°42'0 0.8
2017-Nov-14 05:00N 40°51' E 024°42'0 0.0
2017-Nov-14 04:30N 40°51' E 024°42'0 0.0
2017-Nov-14 04:00N 40°51' E 024°42'0 0.0
2017-Nov-14 03:30N 40°51' E 024°42'0 0.0
2017-Nov-14 03:00N 40°51' E 024°42'0 0.0
2017-Nov-14 02:30N 40°51' E 024°42'0 0.0
2017-Nov-14 02:00N 40°51' E 024°42'0 0.0
2017-Nov-14 01:30N 40°51' E 024°42'0 0.0
2017-Nov-14 01:00N 40°51' E 024°42'0 0.0
2017-Nov-14 00:30N 40°51' E 024°42'0 0.0
2017-Nov-14 00:00N 40°51' E 024°42'0 0.0
2017-Nov-13 23:30N 40°51' E 024°42'0 0.0
2017-Nov-13 23:00N 40°51' E 024°42'0 0.0
2017-Nov-13 22:30N 40°51' E 024°42'0 0.0
2017-Nov-13 22:00N 40°51' E 024°42'5 0.2
2017-Nov-12 19:09N 40°47' E 024°42'0 0.0
2017-Nov-12 19:00N 40°47' E 024°42'0 0.0
2017-Nov-12 18:30N 40°47' E 024°42'2 3.3
2017-Nov-12 18:00N 40°48' E 024°42'3 6.1
2017-Nov-12 17:30N 40°51' E 024°42'0 0.0
2017-Nov-12 17:00N 40°51' E 024°42'1 2.1
2017-Nov-12 16:30N 40°51' E 024°41'4 8.1
2017-Nov-12 16:00N 40°47' E 024°42'0 0.0
2017-Nov-12 15:30N 40°47' E 024°42'0 0.0
2017-Nov-12 15:00N 40°47' E 024°42'2 3.1
2017-Nov-12 14:30N 40°48' E 024°42'3 6.3
2017-Nov-12 14:00N 40°51' E 024°42'1 1.9
2017-Nov-12 13:30N 40°51' E 024°41'4 8.4
2017-Nov-12 13:00N 40°47' E 024°42'0 0.1
2017-Nov-12 12:30N 40°47' E 024°42'0 0.5
2017-Nov-12 12:00N 40°47' E 024°43'0 0.0
2017-Nov-11 19:39N 40°47' E 024°43'0 0.0
2017-Nov-11 19:31N 40°47' E 024°43'0 0.0
2017-Nov-11 19:00N 40°47' E 024°43'0 0.0
2017-Nov-11 18:30N 40°47' E 024°43'2 3.6
2017-Nov-11 18:01N 40°49' E 024°42'3 5.9
2017-Nov-11 17:30N 40°51' E 024°42'0 0.1
2017-Nov-11 17:00N 40°51' E 024°42'1 2.4
2017-Nov-11 16:30N 40°51' E 024°41'4 7.6
2017-Nov-11 16:01N 40°47' E 024°42'0 0.8
2017-Nov-11 15:31N 40°47' E 024°42'0 0.7
2017-Nov-11 15:00N 40°47' E 024°43'0 0.0
2017-Nov-11 14:29N 40°47' E 024°43'0 0.0
2017-Nov-11 14:00N 40°47' E 024°43'0 0.0
2017-Nov-11 13:30N 40°47' E 024°43'0 0.0
2017-Nov-11 12:59N 40°47' E 024°43'0 0.0
2017-Nov-11 12:30N 40°47' E 024°43'0 0.0
2017-Nov-11 12:01N 40°47' E 024°43'0 0.0
2017-Nov-11 11:31N 40°47' E 024°43'0 0.0
2017-Nov-11 11:00N 40°47' E 024°43'0 0.0
2017-Nov-11 10:31N 40°47' E 024°43'0 0.0
2017-Nov-11 10:00N 40°47' E 024°43'0 0.6
2017-Nov-11 09:30N 40°47' E 024°42'0 0.0
2017-Nov-11 09:00N 40°47' E 024°42'0 0.0
2017-Nov-11 08:31N 40°47' E 024°42'4 7.8
2017-Nov-11 08:01N 40°51' E 024°41'1 2.4
2017-Nov-11 07:30N 40°51' E 024°42'0 0.0
2017-Nov-11 07:01N 40°51' E 024°42'1 2.5
2017-Nov-11 06:30N 40°50' E 024°41'3 6.8
2017-Nov-11 06:00N 40°47' E 024°42'0 0.5
2017-Nov-11 05:31N 40°47' E 024°42'0 0.0
2017-Nov-10 15:07N 40°47' E 024°42'0 0.0
2017-Nov-10 15:00N 40°47' E 024°42'0 0.0
2017-Nov-10 14:30N 40°47' E 024°42'0 0.0
2017-Nov-10 14:00N 40°47' E 024°42'0 0.0
2017-Nov-10 13:30N 40°47' E 024°42'4 8.0
2017-Nov-10 13:00N 40°51' E 024°41'1 2.2
2017-Nov-10 12:30N 40°51' E 024°42'1 1.9
2017-Nov-10 12:00N 40°51' E 024°41'4 8.4
2017-Nov-10 11:30N 40°47' E 024°42'0 0.0
2017-Nov-10 11:00N 40°47' E 024°42'0 0.0
2017-Nov-10 10:30N 40°47' E 024°42'0 0.0
2017-Nov-10 10:00N 40°47' E 024°42'0 0.0
2017-Nov-10 09:30N 40°47' E 024°42'0 0.0
2017-Nov-10 09:00N 40°47' E 024°42'0 0.0
2017-Nov-10 08:30N 40°47' E 024°42'4 8.0
2017-Nov-10 08:00N 40°51' E 024°41'1 2.2
2017-Nov-10 07:30N 40°51' E 024°42'0 0.0
2017-Nov-10 07:00N 40°51' E 024°42'1 2.9
2017-Nov-10 06:30N 40°50' E 024°41'3 6.5
2017-Nov-10 06:00N 40°47' E 024°42'0 0.3
2017-Nov-10 05:30N 40°47' E 024°43'0 0.0
2017-Nov-10 05:00N 40°47' E 024°43'0 0.0
2017-Nov-10 04:30N 40°47' E 024°43'0 0.0
2017-Nov-10 04:00N 40°47' E 024°43'0 0.0
2017-Nov-10 03:30N 40°47' E 024°43'0 0.0
2017-Nov-10 03:00N 40°47' E 024°43'0 0.0
2017-Nov-10 02:30N 40°47' E 024°43'0 0.0
2017-Nov-10 02:00N 40°47' E 024°43'0 0.0
2017-Nov-10 01:30N 40°47' E 024°43'0 0.0
2017-Nov-10 01:00N 40°47' E 024°43'0 0.0
2017-Nov-10 00:30N 40°47' E 024°43'0 0.0
2017-Nov-10 00:00N 40°47' E 024°43'0 0.0
2017-Nov-09 23:30N 40°47' E 024°43'0 0.0
2017-Nov-09 23:00N 40°47' E 024°43'0 0.0
2017-Nov-09 22:30N 40°47' E 024°43'0 0.0
2017-Nov-09 22:00N 40°47' E 024°43'0 0.0
2017-Nov-09 21:30N 40°47' E 024°43'0 0.0
2017-Nov-09 20:58N 40°47' E 024°43'0 0.0
2017-Nov-09 20:30N 40°47' E 024°43'0 0.0
2017-Nov-09 20:00N 40°47' E 024°43'0 0.0
2017-Nov-09 19:30N 40°47' E 024°43'0 0.0
2017-Nov-09 19:00N 40°47' E 024°43'0 0.0
2017-Nov-09 18:30N 40°47' E 024°43'0 0.0
2017-Nov-09 18:00N 40°47' E 024°43'0 0.0
2017-Nov-09 17:30N 40°47' E 024°43'0 0.0
2017-Nov-09 17:00N 40°47' E 024°43'0 0.0
2017-Nov-09 16:30N 40°47' E 024°43'0 0.0
2017-Nov-09 16:00N 40°47' E 024°43'0 0.0
2017-Nov-09 15:30N 40°47' E 024°43'0 0.0
2017-Nov-09 15:00N 40°47' E 024°43'0 0.0
2017-Nov-09 14:30N 40°47' E 024°43'0 0.0
2017-Nov-09 14:00N 40°47' E 024°43'0 0.0
2017-Nov-09 13:30N 40°47' E 024°43'0 0.6
2017-Nov-09 13:00N 40°47' E 024°42'4 7.6
2017-Nov-09 12:30N 40°51' E 024°41'1 2.4
2017-Nov-09 12:00N 40°51' E 024°42'1 2.2
2017-Nov-09 11:30N 40°51' E 024°41'4 7.9
2017-Nov-09 11:00N 40°47' E 024°42'0 0.0
2017-Nov-09 10:30N 40°47' E 024°42'1 3.0
2017-Nov-09 10:00N 40°48' E 024°42'3 6.4
2017-Nov-09 09:30N 40°51' E 024°42'0 0.0
2017-Nov-09 09:00N 40°51' E 024°42'3 5.4
2017-Nov-09 08:30N 40°49' E 024°42'2 4.0
2017-Nov-09 08:00N 40°47' E 024°42'0 0.0
2017-Nov-08 15:57N 40°47' E 024°42'0 0.0
2017-Nov-08 15:30N 40°47' E 024°42'0 0.0
2017-Nov-08 15:00N 40°47' E 024°42'0 0.0
2017-Nov-08 14:31N 40°47' E 024°42'0 0.0
2017-Nov-08 14:00N 40°47' E 024°42'0 0.0
2017-Nov-08 13:30N 40°47' E 024°42'0 0.0
2017-Nov-08 13:00N 40°47' E 024°42'0 0.0
2017-Nov-08 12:31N 40°47' E 024°42'0 0.0
2017-Nov-08 12:01N 40°47' E 024°42'  
Track history (hours):
 
Tides and Currents Weather Stations Pressure Air Temp Water Temp Dewpoint Dewpoint Depression Visibility Wind Speed Wind Dir Waves Ship Positions

Nikitis

Last reported at 2017-Nov-18 12:00 UTC. Time now 2017-Nov-18 12:21 UTC.
Position N 40°47' E 024°42'.

Length 39 m.

Type: Passenger vessel. MMSI: 239992800.

Date/timePositionNaut miles runAvg speedWind from/ knotsBaromVisibWave heightAir tempDewpointWater temp
2017-Nov-18 12:00N 40°47' E 024°42'0 0.0
2017-Nov-18 11:30N 40°47' E 024°42'0 0.0
2017-Nov-18 11:00N 40°47' E 024°42'4 7.9
2017-Nov-18 10:30N 40°51' E 024°41'1 2.5
2017-Nov-18 10:00N 40°51' E 024°42'1 2.2
2017-Nov-18 09:30N 40°51' E 024°41'4 7.9
2017-Nov-18 09:00N 40°47' E 024°42'0 0.0
2017-Nov-18 08:30N 40°47' E 024°42'0 0.0
2017-Nov-18 08:00N 40°47' E 024°42'0 0.0
2017-Nov-18 07:30N 40°47' E 024°42'0 0.0
2017-Nov-18 07:00N 40°47' E 024°42'0 0.0
2017-Nov-18 06:30N 40°47' E 024°42'0 0.0
2017-Nov-18 06:00N 40°47' E 024°42'0 0.0
2017-Nov-18 05:30N 40°47' E 024°42'0 0.0
2017-Nov-18 05:00N 40°47' E 024°42'0 0.0
2017-Nov-18 04:30N 40°47' E 024°42'0 0.0
2017-Nov-18 04:00N 40°47' E 024°42'0 0.0
2017-Nov-18 03:30N 40°47' E 024°42'0 0.0
2017-Nov-18 03:00N 40°47' E 024°42'0 0.0
2017-Nov-18 02:30N 40°47' E 024°42'0 0.0
2017-Nov-18 02:00N 40°47' E 024°42'0 0.0
2017-Nov-18 01:30N 40°47' E 024°42'0 0.0
2017-Nov-18 01:00N 40°47' E 024°42'0 0.0
2017-Nov-18 00:30N 40°47' E 024°42'0 0.0
2017-Nov-18 00:00N 40°47' E 024°42'0 0.0
2017-Nov-17 23:30N 40°47' E 024°42'0 0.0
2017-Nov-17 23:00N 40°47' E 024°42'0 0.0
2017-Nov-17 22:30N 40°47' E 024°42'0 0.0
2017-Nov-17 22:00N 40°47' E 024°42'0 0.0
2017-Nov-17 21:30N 40°47' E 024°42'0 0.0
2017-Nov-17 21:00N 40°47' E 024°42'0 0.0
2017-Nov-17 20:30N 40°47' E 024°42'0 0.0
2017-Nov-17 20:00N 40°47' E 024°42'0 0.0
2017-Nov-17 19:30N 40°47' E 024°42'0 0.0
2017-Nov-17 19:00N 40°47' E 024°42'0 0.0
2017-Nov-17 18:30N 40°47' E 024°42'0 0.0
2017-Nov-17 18:00N 40°47' E 024°42'0 0.0
2017-Nov-17 17:30N 40°47' E 024°42'0 0.0
2017-Nov-17 17:00N 40°47' E 024°42'0 0.0
2017-Nov-17 16:30N 40°47' E 024°42'0 0.0
2017-Nov-17 16:00N 40°47' E 024°42'0 0.0
2017-Nov-17 15:30N 40°47' E 024°42'0 0.0
2017-Nov-17 15:00N 40°47' E 024°42'0 0.0
2017-Nov-17 14:30N 40°47' E 024°42'0 0.0
2017-Nov-17 14:00N 40°47' E 024°42'4 8.2
2017-Nov-17 13:30N 40°51' E 024°41'1 2.3
2017-Nov-17 13:00N 40°51' E 024°42'0 0.1
2017-Nov-17 12:30N 40°51' E 024°42'0 0.1
2017-Nov-17 12:00N 40°51' E 024°42'2 4.7
2017-Nov-17 11:30N 40°49' E 024°42'2 4.6
2017-Nov-17 11:00N 40°47' E 024°42'4 8.1
2017-Nov-17 10:30N 40°51' E 024°41'1 1.1
2017-Nov-17 10:00N 40°51' E 024°41'5 9.4
2017-Nov-17 09:30N 40°47' E 024°42'4 7.5
2017-Nov-17 09:00N 40°51' E 024°41'1 2.5
2017-Nov-17 08:30N 40°51' E 024°42'1 2.8
2017-Nov-17 08:00N 40°50' E 024°41'3 6.8
2017-Nov-17 07:30N 40°47' E 024°42'0 0.0
2017-Nov-17 07:00N 40°47' E 024°42'0 0.0
2017-Nov-17 06:30N 40°47' E 024°42'0 0.0
2017-Nov-17 06:00N 40°47' E 024°42'0 0.0
2017-Nov-17 05:30N 40°47' E 024°42'0 0.0
2017-Nov-17 05:00N 40°47' E 024°42'0 0.0
2017-Nov-17 04:30N 40°47' E 024°42'0 0.0
2017-Nov-17 04:00N 40°47' E 024°42'0 0.0
2017-Nov-17 03:30N 40°47' E 024°42'0 0.0
2017-Nov-17 03:00N 40°47' E 024°42'0 0.0
2017-Nov-17 02:30N 40°47' E 024°42'0 0.0
2017-Nov-17 02:00N 40°47' E 024°42'0 0.0
2017-Nov-17 01:30N 40°47' E 024°42'0 0.0
2017-Nov-17 01:00N 40°47' E 024°42'0 0.0
2017-Nov-17 00:30N 40°47' E 024°42'0 0.0
2017-Nov-17 00:00N 40°47' E 024°42'0 0.0
2017-Nov-16 23:30N 40°47' E 024°42'0 0.0
2017-Nov-16 23:00N 40°47' E 024°42'0 0.0
2017-Nov-16 22:30N 40°47' E 024°42'0 0.0
2017-Nov-16 22:00N 40°47' E 024°42'0 0.0
2017-Nov-16 21:30N 40°47' E 024°42'0 0.0
2017-Nov-16 21:00N 40°47' E 024°42'0 0.0
2017-Nov-16 20:30N 40°47' E 024°42'0 0.0
2017-Nov-16 20:00N 40°47' E 024°42'0 0.0
2017-Nov-16 19:30N 40°47' E 024°42'0 0.0
2017-Nov-16 19:00N 40°47' E 024°42'0 0.0
2017-Nov-16 18:30N 40°47' E 024°42'0 0.0
2017-Nov-16 18:00N 40°47' E 024°42'0 0.0
2017-Nov-16 17:30N 40°47' E 024°42'0 0.0
2017-Nov-16 17:00N 40°47' E 024°42'0 0.0
2017-Nov-16 16:30N 40°47' E 024°42'0 0.0
2017-Nov-16 16:00N 40°47' E 024°42'0 0.0
2017-Nov-16 15:30N 40°47' E 024°42'0 0.0
2017-Nov-16 15:00N 40°47' E 024°42'0 0.0
2017-Nov-16 14:30N 40°47' E 024°42'0 0.0
2017-Nov-16 14:00N 40°47' E 024°42'0 0.0
2017-Nov-16 13:30N 40°47' E 024°42'0 0.0
2017-Nov-16 13:00N 40°47' E 024°42'0 0.0
2017-Nov-16 12:30N 40°47' E 024°42'0 0.0
2017-Nov-16 12:00N 40°47' E 024°42'0 0.0
2017-Nov-16 11:30N 40°47' E 024°42'0 0.0
2017-Nov-16 11:00N 40°47' E 024°42'0 0.0
2017-Nov-16 10:30N 40°47' E 024°42'0 0.0
2017-Nov-16 10:00N 40°47' E 024°42'0 0.0
2017-Nov-16 09:30N 40°47' E 024°42'0 0.0
2017-Nov-16 09:00N 40°47' E 024°42'0 0.0
2017-Nov-16 08:30N 40°47' E 024°42'0 0.0
2017-Nov-16 08:00N 40°47' E 024°42'0 0.0
2017-Nov-16 07:30N 40°47' E 024°42'0 0.0
2017-Nov-16 07:00N 40°47' E 024°42'0 0.0
2017-Nov-16 06:30N 40°47' E 024°42'0 0.0
2017-Nov-16 06:00N 40°47' E 024°42'0 0.0
2017-Nov-16 05:30N 40°47' E 024°42'0 0.0
2017-Nov-16 05:00N 40°47' E 024°42'0 0.0
2017-Nov-16 04:30N 40°47' E 024°42'0 0.0
2017-Nov-15 17:40N 40°47' E 024°42'0 0.0
2017-Nov-15 17:30N 40°47' E 024°42'0 0.0
2017-Nov-15 17:00N 40°47' E 024°42'0 0.0
2017-Nov-15 16:30N 40°47' E 024°42'0 0.0
2017-Nov-15 16:01N 40°47' E 024°42'0 0.0
2017-Nov-15 15:31N 40°47' E 024°42'0 0.0
2017-Nov-15 15:00N 40°47' E 024°42'0 0.0
2017-Nov-15 14:30N 40°47' E 024°42'0 0.0
2017-Nov-15 14:00N 40°47' E 024°42'0 0.0
2017-Nov-15 13:30N 40°47' E 024°42'0 0.0
2017-Nov-15 13:00N 40°47' E 024°42'0 0.0
2017-Nov-15 12:31N 40°47' E 024°42'0 0.0
2017-Nov-15 12:00N 40°47' E 024°42'0 0.0
2017-Nov-15 11:30N 40°47' E 024°42'0 0.0
2017-Nov-15 11:00N 40°47' E 024°42'0 0.0
2017-Nov-15 10:30N 40°47' E 024°42'0 0.0
2017-Nov-15 10:00N 40°47' E 024°42'0 0.0
2017-Nov-15 09:31N 40°47' E 024°42'0 0.0
2017-Nov-15 09:00N 40°47' E 024°42'0 0.0
2017-Nov-15 08:30N 40°47' E 024°42'0 0.2
2017-Nov-15 08:00N 40°47' E 024°42'2 4.7
2017-Nov-15 07:30N 40°49' E 024°41'3 5.0
2017-Nov-15 07:00N 40°51' E 024°42'0 0.0
2017-Nov-15 06:30N 40°51' E 024°42'3 5.6
2017-Nov-15 06:00N 40°49' E 024°43'2 3.8
2017-Nov-15 05:30N 40°47' E 024°42'0 0.5
2017-Nov-15 05:00N 40°47' E 024°43'0 0.0
2017-Nov-14 23:54N 40°47' E 024°43'0 0.0
2017-Nov-14 23:30N 40°47' E 024°43'0 0.0
2017-Nov-14 23:00N 40°47' E 024°43'0 0.0
2017-Nov-14 22:30N 40°47' E 024°43'0 0.0
2017-Nov-14 22:00N 40°47' E 024°43'0 0.0
2017-Nov-14 21:30N 40°47' E 024°43'0 0.0
2017-Nov-14 21:00N 40°47' E 024°43'0 0.0
2017-Nov-14 20:30N 40°47' E 024°43'0 0.0
2017-Nov-14 20:00N 40°47' E 024°43'0 0.0
2017-Nov-14 19:30N 40°47' E 024°43'0 0.0
2017-Nov-14 19:00N 40°47' E 024°43'0 0.0
2017-Nov-14 18:30N 40°47' E 024°43'0 0.0
2017-Nov-14 18:00N 40°47' E 024°43'0 0.0
2017-Nov-14 17:30N 40°47' E 024°43'0 0.0
2017-Nov-14 17:00N 40°47' E 024°43'0 0.0
2017-Nov-14 16:30N 40°47' E 024°43'0 0.0
2017-Nov-14 16:00N 40°47' E 024°43'0 0.0
2017-Nov-14 15:30N 40°47' E 024°43'0 0.0
2017-Nov-14 15:00N 40°47' E 024°43'0 0.0
2017-Nov-14 14:30N 40°47' E 024°43'0 0.0
2017-Nov-14 14:00N 40°47' E 024°43'0 0.0
2017-Nov-14 13:30N 40°47' E 024°43'0 0.0
2017-Nov-14 13:00N 40°47' E 024°43'0 0.6
2017-Nov-14 12:30N 40°47' E 024°42'4 8.2
2017-Nov-14 12:00N 40°51' E 024°41'1 2.4
2017-Nov-14 11:30N 40°51' E 024°42'0 0.0
2017-Nov-14 11:00N 40°51' E 024°42'1 2.1
2017-Nov-14 10:30N 40°51' E 024°41'4 7.3
2017-Nov-14 10:00N 40°47' E 024°42'1 1.2
2017-Nov-14 09:30N 40°47' E 024°42'0 0.0
2017-Nov-14 09:00N 40°47' E 024°42'4 8.0
2017-Nov-14 08:30N 40°51' E 024°41'1 2.3
2017-Nov-14 08:00N 40°51' E 024°42'1 2.2
2017-Nov-14 07:30N 40°51' E 024°41'4 8.1
2017-Nov-14 07:00N 40°47' E 024°42'0 0.0
2017-Nov-14 06:30N 40°47' E 024°42'2 4.6
2017-Nov-14 06:00N 40°49' E 024°41'3 5.3
2017-Nov-14 05:30N 40°52' E 024°42'0 0.8
2017-Nov-14 05:00N 40°51' E 024°42'0 0.0
2017-Nov-14 04:30N 40°51' E 024°42'0 0.0
2017-Nov-14 04:00N 40°51' E 024°42'0 0.0
2017-Nov-14 03:30N 40°51' E 024°42'0 0.0
2017-Nov-14 03:00N 40°51' E 024°42'0 0.0
2017-Nov-14 02:30N 40°51' E 024°42'0 0.0
2017-Nov-14 02:00N 40°51' E 024°42'0 0.0
2017-Nov-14 01:30N 40°51' E 024°42'0 0.0
2017-Nov-14 01:00N 40°51' E 024°42'0 0.0
2017-Nov-14 00:30N 40°51' E 024°42'0 0.0
2017-Nov-14 00:00N 40°51' E 024°42'0 0.0
2017-Nov-13 23:30N 40°51' E 024°42'0 0.0
2017-Nov-13 23:00N 40°51' E 024°42'0 0.0
2017-Nov-13 22:30N 40°51' E 024°42'0 0.0
2017-Nov-13 22:00N 40°51' E 024°42'5 0.2
2017-Nov-12 19:09N 40°47' E 024°42'0 0.0
2017-Nov-12 19:00N 40°47' E 024°42'0 0.0
2017-Nov-12 18:30N 40°47' E 024°42'2 3.3
2017-Nov-12 18:00N 40°48' E 024°42'3 6.1
2017-Nov-12 17:30N 40°51' E 024°42'0 0.0
2017-Nov-12 17:00N 40°51' E 024°42'1 2.1
2017-Nov-12 16:30N 40°51' E 024°41'4 8.1
2017-Nov-12 16:00N 40°47' E 024°42'0 0.0
2017-Nov-12 15:30N 40°47' E 024°42'0 0.0
2017-Nov-12 15:00N 40°47' E 024°42'2 3.1
2017-Nov-12 14:30N 40°48' E 024°42'3 6.3
2017-Nov-12 14:00N 40°51' E 024°42'1 1.9
2017-Nov-12 13:30N 40°51' E 024°41'4 8.4
2017-Nov-12 13:00N 40°47' E 024°42'0 0.1
2017-Nov-12 12:30N 40°47' E 024°42'0 0.5
2017-Nov-12 12:00N 40°47' E 024°43'0 0.0
2017-Nov-11 19:39N 40°47' E 024°43'0 0.0
2017-Nov-11 19:31N 40°47' E 024°43'0 0.0
2017-Nov-11 19:00N 40°47' E 024°43'0 0.0
2017-Nov-11 18:30N 40°47' E 024°43'2 3.6
2017-Nov-11 18:01N 40°49' E 024°42'3 5.9
2017-Nov-11 17:30N 40°51' E 024°42'0 0.1
2017-Nov-11 17:00N 40°51' E 024°42'1 2.4
2017-Nov-11 16:30N 40°51' E 024°41'4 7.6
2017-Nov-11 16:01N 40°47' E 024°42'0 0.8
2017-Nov-11 15:31N 40°47' E 024°42'0 0.7
2017-Nov-11 15:00N 40°47' E 024°43'0 0.0
2017-Nov-11 14:29N 40°47' E 024°43'0 0.0
2017-Nov-11 14:00N 40°47' E 024°43'0 0.0
2017-Nov-11 13:30N 40°47' E 024°43'0 0.0
2017-Nov-11 12:59N 40°47' E 024°43'0 0.0
2017-Nov-11 12:30N 40°47' E 024°43'0 0.0
2017-Nov-11 12:01N 40°47' E 024°43'0 0.0
2017-Nov-11 11:31N 40°47' E 024°43'0 0.0
2017-Nov-11 11:00N 40°47' E 024°43'0 0.0
2017-Nov-11 10:31N 40°47' E 024°43'0 0.0
2017-Nov-11 10:00N 40°47' E 024°43'0 0.6
2017-Nov-11 09:30N 40°47' E 024°42'0 0.0
2017-Nov-11 09:00N 40°47' E 024°42'0 0.0
2017-Nov-11 08:31N 40°47' E 024°42'4 7.8
2017-Nov-11 08:01N 40°51' E 024°41'1 2.4
2017-Nov-11 07:30N 40°51' E 024°42'0 0.0
2017-Nov-11 07:01N 40°51' E 024°42'1 2.5
2017-Nov-11 06:30N 40°50' E 024°41'3 6.8
2017-Nov-11 06:00N 40°47' E 024°42'0 0.5
2017-Nov-11 05:31N 40°47' E 024°42'0 0.0
2017-Nov-10 15:07N 40°47' E 024°42'0 0.0
2017-Nov-10 15:00N 40°47' E 024°42'0 0.0
2017-Nov-10 14:30N 40°47' E 024°42'0 0.0
2017-Nov-10 14:00N 40°47' E 024°42'0 0.0
2017-Nov-10 13:30N 40°47' E 024°42'4 8.0
2017-Nov-10 13:00N 40°51' E 024°41'1 2.2
2017-Nov-10 12:30N 40°51' E 024°42'1 1.9
2017-Nov-10 12:00N 40°51' E 024°41'4 8.4
2017-Nov-10 11:30N 40°47' E 024°42'0 0.0
2017-Nov-10 11:00N 40°47' E 024°42'0 0.0
2017-Nov-10 10:30N 40°47' E 024°42'0 0.0
2017-Nov-10 10:00N 40°47' E 024°42'0 0.0
2017-Nov-10 09:30N 40°47' E 024°42'0 0.0
2017-Nov-10 09:00N 40°47' E 024°42'0 0.0
2017-Nov-10 08:30N 40°47' E 024°42'4 8.0
2017-Nov-10 08:00N 40°51' E 024°41'1 2.2
2017-Nov-10 07:30N 40°51' E 024°42'0 0.0
2017-Nov-10 07:00N 40°51' E 024°42'1 2.9
2017-Nov-10 06:30N 40°50' E 024°41'3 6.5
2017-Nov-10 06:00N 40°47' E 024°42'0 0.3
2017-Nov-10 05:30N 40°47' E 024°43'0 0.0
2017-Nov-10 05:00N 40°47' E 024°43'0 0.0
2017-Nov-10 04:30N 40°47' E 024°43'0 0.0
2017-Nov-10 04:00N 40°47' E 024°43'0 0.0
2017-Nov-10 03:30N 40°47' E 024°43'0 0.0
2017-Nov-10 03:00N 40°47' E 024°43'0 0.0
2017-Nov-10 02:30N 40°47' E 024°43'0 0.0
2017-Nov-10 02:00N 40°47' E 024°43'0 0.0
2017-Nov-10 01:30N 40°47' E 024°43'0 0.0
2017-Nov-10 01:00N 40°47' E 024°43'0 0.0
2017-Nov-10 00:30N 40°47' E 024°43'0 0.0
2017-Nov-10 00:00N 40°47' E 024°43'0 0.0
2017-Nov-09 23:30N 40°47' E 024°43'0 0.0
2017-Nov-09 23:00N 40°47' E 024°43'0 0.0
2017-Nov-09 22:30N 40°47' E 024°43'0 0.0
2017-Nov-09 22:00N 40°47' E 024°43'0 0.0
2017-Nov-09 21:30N 40°47' E 024°43'0 0.0
2017-Nov-09 20:58N 40°47' E 024°43'0 0.0
2017-Nov-09 20:30N 40°47' E 024°43'0 0.0
2017-Nov-09 20:00N 40°47' E 024°43'0 0.0
2017-Nov-09 19:30N 40°47' E 024°43'0 0.0
2017-Nov-09 19:00N 40°47' E 024°43'0 0.0
2017-Nov-09 18:30N 40°47' E 024°43'0 0.0
2017-Nov-09 18:00N 40°47' E 024°43'0 0.0
2017-Nov-09 17:30N 40°47' E 024°43'0 0.0
2017-Nov-09 17:00N 40°47' E 024°43'0 0.0
2017-Nov-09 16:30N 40°47' E 024°43'0 0.0
2017-Nov-09 16:00N 40°47' E 024°43'0 0.0
2017-Nov-09 15:30N 40°47' E 024°43'0 0.0
2017-Nov-09 15:00N 40°47' E 024°43'0 0.0
2017-Nov-09 14:30N 40°47' E 024°43'0 0.0
2017-Nov-09 14:00N 40°47' E 024°43'0 0.0
2017-Nov-09 13:30N 40°47' E 024°43'0 0.6
2017-Nov-09 13:00N 40°47' E 024°42'4 7.6
2017-Nov-09 12:30N 40°51' E 024°41'1 2.4
2017-Nov-09 12:00N 40°51' E 024°42'1 2.2
2017-Nov-09 11:30N 40°51' E 024°41'4 7.9
2017-Nov-09 11:00N 40°47' E 024°42'0 0.0
2017-Nov-09 10:30N 40°47' E 024°42'1 3.0
2017-Nov-09 10:00N 40°48' E 024°42'3 6.4
2017-Nov-09 09:30N 40°51' E 024°42'0 0.0
2017-Nov-09 09:00N 40°51' E 024°42'3 5.4
2017-Nov-09 08:30N 40°49' E 024°42'2 4.0
2017-Nov-09 08:00N 40°47' E 024°42'0 0.0
2017-Nov-08 15:57N 40°47' E 024°42'0 0.0
2017-Nov-08 15:30N 40°47' E 024°42'0 0.0
2017-Nov-08 15:00N 40°47' E 024°42'0 0.0
2017-Nov-08 14:31N 40°47' E 024°42'0 0.0
2017-Nov-08 14:00N 40°47' E 024°42'0 0.0
2017-Nov-08 13:30N 40°47' E 024°42'0 0.0
2017-Nov-08 13:00N 40°47' E 024°42'0 0.0
2017-Nov-08 12:31N 40°47' E 024°42'0 0.0
2017-Nov-08 12:01N 40°47' E 024°42'  

Dump ship's entire track history